Time;durP1;ratioP1;P1;durP2;ratioP2;P2;SDS_P1;SDS_P2;PMS_P1;PMS_P2;Temp;Humidity;BMP_temperature;BMP_pressure;BME280_temperature;BME280_humidity;BME280_pressure;Samples;Min_cycle;Max_cycle;Signal;HPM_P1;HPM_P2
2023/05/12 00:02:04;;;;;;;;;;;;;;;11.17;100.00;101484.94;5113692;28;19911;-48
2023/05/12 00:04:29;;;;;;;;;;;;;;;11.13;100.00;101475.34;5113804;28;20267;-48
2023/05/12 00:06:54;;;;;;;;;;;;;;;11.12;100.00;101481.31;5113502;28;19912;-48
2023/05/12 00:09:19;;;;;;;;;;;;;;;11.10;100.00;101482.94;5113047;28;20006;-51
2023/05/12 00:11:47;;;;;;;;;;;;;;;11.08;100.00;101479.44;5114114;28;20400;-48
2023/05/12 00:14:12;;;;;;;;;;;;;;;11.09;100.00;101475.16;5113289;28;20438;-48
2023/05/12 00:16:37;;;;;;;;;;;;;;;11.06;100.00;101475.06;5113380;28;20472;-52
2023/05/12 00:19:02;;;;;;;;;;;;;;;11.05;100.00;101474.16;5114058;28;20347;-48
2023/05/12 00:21:27;;;;;;;;;;;;;;;11.03;100.00;101475.81;5113150;28;19918;-47
2023/05/12 00:23:53;;;;;;;;;;;;;;;11.03;100.00;101475.81;5113392;28;20002;-51
2023/05/12 00:26:18;;;;;;;;;;;;;;;11.01;100.00;101472.28;5113625;28;19951;-51
2023/05/12 00:28:43;;;;;;;;;;;;;;;10.99;100.00;101473.94;5113137;28;19957;-53
2023/05/12 00:31:08;;;;;;;;;;;;;;;10.94;100.00;101465.16;5113427;28;19912;-48
2023/05/12 00:33:33;;;;;;;;;;;;;;;10.91;100.00;101475.34;5113579;28;19912;-49
2023/05/12 00:36:02;;;;;;;;;;;;;;;10.86;100.00;101473.47;5113197;28;20275;-51
2023/05/12 00:38:28;;;;;;;;;;;;;;;10.84;100.00;101469.06;5113276;28;19912;-50
2023/05/12 00:40:53;;;;;;;;;;;;;;;10.80;100.00;101470.66;5113559;28;19919;-49
2023/05/12 00:43:18;;;;;;;;;;;;;;;10.78;100.00;101468.81;5112638;28;19968;-49
2023/05/12 00:45:43;;;;;;;;;;;;;;;10.74;100.00;101467.81;5113209;28;19963;-51
2023/05/12 00:48:09;;;;;;;;;;;;;;;10.73;100.00;101466.09;5113193;28;19950;-51
2023/05/12 00:50:34;;;;;;;;;;;;;;;10.71;100.00;101462.56;5113365;28;19911;-51
2023/05/12 00:53:00;;;;;;;;;;;;;;;10.70;100.00;101458.22;5113397;28;20002;-48
2023/05/12 00:55:25;;;;;;;;;;;;;;;10.70;100.00;101460.78;5112576;28;20320;-51
2023/05/12 00:57:51;;;;;;;;;;;;;;;10.67;100.00;101453.81;5113422;28;19911;-52
2023/05/12 01:00:17;;;;;;;;;;;;;;;10.68;100.00;101459.88;5114814;27;19912;-50
2023/05/12 01:02:42;;;;;;;;;;;;;;;10.66;100.00;101454.63;5117171;28;20012;-48
2023/05/12 01:05:08;;;;;;;;;;;;;;;10.66;100.00;101453.75;5117474;28;20509;-49
2023/05/12 01:07:35;;;;;;;;;;;;;;;10.65;100.00;101452.00;5117180;28;19912;-50
2023/05/12 01:10:00;;;;;;;;;;;;;;;10.65;100.00;101452.91;5116756;28;19919;-48
2023/05/12 01:12:26;;;;;;;;;;;;;;;10.65;100.00;101452.91;5116913;28;19912;-48
2023/05/12 01:14:52;;;;;;;;;;;;;;;10.66;100.00;101451.19;5117174;28;19918;-48
2023/05/12 01:17:26;;;;;;;;;;;;;;;10.66;100.00;101444.31;5116546;28;19912;-48
2023/05/12 01:19:53;;;;;;;;;;;;;;;10.66;100.00;101444.31;5117082;28;19911;-48
2023/05/12 01:22:18;;;;;;;;;;;;;;;10.68;100.00;101441.81;5117196;28;19911;-47
2023/05/12 01:25:03;;;;;;;;;;;;;;;10.67;100.00;101440.06;5116632;28;20267;-50
2023/05/12 01:27:29;;;;;;;;;;;;;;;10.66;100.00;101439.16;5116318;28;20260;-48
2023/05/12 01:29:58;;;;;;;;;;;;;;;10.66;100.00;101438.31;5117117;28;20441;-49
2023/05/12 01:32:24;;;;;;;;;;;;;;;10.64;100.00;101434.78;5116268;28;19923;-49
2023/05/12 01:34:49;;;;;;;;;;;;;;;10.64;100.00;101434.78;5116710;28;19912;-49
2023/05/12 01:37:15;;;;;;;;;;;;;;;10.63;100.00;101435.63;5116687;28;19916;-48
2023/05/12 01:39:40;;;;;;;;;;;;;;;10.63;100.00;101433.03;5116008;28;19919;-48
2023/05/12 01:42:05;;;;;;;;;;;;;;;10.61;100.00;101444.97;5116391;28;19934;-50
2023/05/12 01:44:31;;;;;;;;;;;;;;;10.59;100.00;101433.72;5116038;28;20012;-48
2023/05/12 01:46:56;;;;;;;;;;;;;;;10.57;100.00;101435.38;5116481;28;19912;-49
2023/05/12 01:49:21;;;;;;;;;;;;;;;10.53;100.00;101436.94;5116100;28;19922;-48
2023/05/12 01:51:47;;;;;;;;;;;;;;;10.50;100.00;101426.53;5116063;28;20383;-52
2023/05/12 01:54:12;;;;;;;;;;;;;;;10.48;100.00;101443.63;5116373;28;20450;-50
2023/05/12 01:56:37;;;;;;;;;;;;;;;10.45;100.00;101439.22;5116295;28;19918;-53
2023/05/12 01:59:02;;;;;;;;;;;;;;;10.44;100.00;101426.28;5115952;28;19918;-51
2023/05/12 02:01:27;;;;;;;;;;;;;;;10.43;100.00;101430.56;5115953;28;20004;-50
2023/05/12 02:03:54;;;;;;;;;;;;;;;10.44;100.00;101431.44;5116418;28;19911;-47
2023/05/12 02:06:20;;;;;;;;;;;;;;;10.42;100.00;101428.81;5115388;28;19923;-48
2023/05/12 02:08:45;;;;;;;;;;;;;;;10.41;100.00;101426.16;5115862;28;20291;-48
2023/05/12 02:11:10;;;;;;;;;;;;;;;10.39;100.00;101423.50;5114845;28;20359;-49
2023/05/12 02:13:35;;;;;;;;;;;;;;;10.36;100.00;101418.25;5115389;28;19977;-48
2023/05/12 02:16:01;;;;;;;;;;;;;;;10.34;100.00;101414.69;5115941;28;19998;-50
2023/05/12 02:18:26;;;;;;;;;;;;;;;10.33;100.00;101418.09;5115756;28;19942;-52
2023/05/12 02:20:52;;;;;;;;;;;;;;;10.30;100.00;101418.84;5115497;28;19922;-48
2023/05/12 02:23:17;;;;;;;;;;;;;;;10.29;100.00;101416.19;5115429;28;20343;-48
2023/05/12 02:25:42;;;;;;;;;;;;;;;10.28;100.00;101420.47;5115850;28;19919;-49
2023/05/12 02:28:09;;;;;;;;;;;;;;;10.26;100.00;101411.81;5115330;28;19998;-48
2023/05/12 02:30:35;;;;;;;;;;;;;;;10.26;100.00;101410.94;5115506;28;20262;-48
2023/05/12 02:33:00;;;;;;;;;;;;;;;10.25;100.00;101404.00;5115817;28;19918;-49
2023/05/12 02:35:25;;;;;;;;;;;;;;;10.24;100.00;101408.31;5115017;28;19912;-50
2023/05/12 02:37:51;;;;;;;;;;;;;;;10.25;100.00;101404.91;5115511;28;19957;-48
2023/05/12 02:40:16;;;;;;;;;;;;;;;10.24;100.00;101402.25;5115150;28;20324;-49
2023/05/12 02:42:42;;;;;;;;;;;;;;;10.24;100.00;101402.25;5115160;28;19912;-50
2023/05/12 02:45:09;;;;;;;;;;;;;;;10.22;100.00;101399.63;5115410;28;20469;-50
2023/05/12 02:47:35;;;;;;;;;;;;;;;10.21;100.00;101396.19;5115077;28;20390;-50
2023/05/12 02:50:00;;;;;;;;;;;;;;;10.21;100.00;101393.59;5114833;28;20248;-51
2023/05/12 02:52:25;;;;;;;;;;;;;;;10.21;100.00;101387.56;5115084;28;19918;-52
2023/05/12 02:54:50;;;;;;;;;;;;;;;10.21;100.00;101387.56;5114870;28;20286;-49
2023/05/12 02:57:16;;;;;;;;;;;;;;;10.22;100.00;101384.16;5115019;28;19916;-52
2023/05/12 02:59:41;;;;;;;;;;;;;;;10.20;100.00;101385.81;5115303;28;19957;-48
2023/05/12 03:02:06;;;;;;;;;;;;;;;10.18;100.00;101378.00;5114747;28;19980;-48
2023/05/12 03:04:32;;;;;;;;;;;;;;;10.18;100.00;101372.00;5114642;28;20375;-48
2023/05/12 03:06:57;;;;;;;;;;;;;;;10.18;100.00;101372.84;5115014;28;19919;-50
2023/05/12 03:09:22;;;;;;;;;;;;;;;10.18;100.00;101383.16;5114176;28;20330;-48
2023/05/12 03:11:47;;;;;;;;;;;;;;;10.18;100.00;101378.00;5115005;28;20274;-48
2023/05/12 03:14:12;;;;;;;;;;;;;;;10.18;100.00;101370.28;5115034;28;20397;-49
2023/05/12 03:16:37;;;;;;;;;;;;;;;10.19;100.00;101377.19;5114163;28;19918;-52
2023/05/12 03:19:03;;;;;;;;;;;;;;;10.18;100.00;101372.84;5114898;28;19911;-48
2023/05/12 03:21:29;;;;;;;;;;;;;;;10.18;100.00;101364.25;5114504;28;19912;-48
2023/05/12 03:23:54;;;;;;;;;;;;;;;10.17;100.00;101360.81;5114173;28;19912;-48
2023/05/12 03:26:19;;;;;;;;;;;;;;;10.18;100.00;101365.13;5114446;28;20048;-49
2023/05/12 03:28:45;;;;;;;;;;;;;;;10.19;100.00;101358.31;5114791;28;19912;-48
2023/05/12 03:31:10;;;;;;;;;;;;;;;10.19;100.00;101364.31;5114314;28;20386;-48
2023/05/12 03:33:35;;;;;;;;;;;;;;;10.18;100.00;101361.69;5114072;28;20291;-50
2023/05/12 03:36:00;;;;;;;;;;;;;;;10.18;100.00;101352.25;5114452;28;20002;-52
2023/05/12 03:38:26;;;;;;;;;;;;;;;10.19;100.00;101354.00;5113668;28;19919;-49
2023/05/12 03:41:01;;;;;;;;;;;;;;;10.19;100.00;101355.72;5114157;28;19916;-51
2023/05/12 03:43:27;;;;;;;;;;;;;;;10.19;100.00;101350.56;5114256;28;19964;-50
2023/05/12 03:45:52;;;;;;;;;;;;;;;10.19;100.00;101348.84;5113802;28;19949;-52
2023/05/12 03:48:17;;;;;;;;;;;;;;;10.19;100.00;101338.56;5113822;28;19999;-51
2023/05/12 03:50:42;;;;;;;;;;;;;;;10.19;100.00;101343.72;5114262;28;19919;-48
2023/05/12 03:53:07;;;;;;;;;;;;;;;10.20;100.00;101344.59;5113795;28;20313;-48
2023/05/12 03:55:32;;;;;;;;;;;;;;;10.20;100.00;101348.03;5113593;28;19955;-51
2023/05/12 03:57:58;;;;;;;;;;;;;;;10.20;100.00;101342.91;5113986;28;19953;-51
2023/05/12 04:00:23;;;;;;;;;;;;;;;10.21;100.00;101342.09;5113138;28;19915;-48
2023/05/12 04:02:49;;;;;;;;;;;;;;;10.21;100.00;101344.66;5114093;28;19912;-48
2023/05/12 04:05:15;;;;;;;;;;;;;;;10.23;100.00;101343.84;5113506;28;19919;-50
2023/05/12 04:07:40;;;;;;;;;;;;;;;10.24;100.00;101340.44;5113316;28;19912;-48
2023/05/12 04:10:05;;;;;;;;;;;;;;;10.24;100.00;101346.47;5113720;28;19954;-50
2023/05/12 04:12:30;;;;;;;;;;;;;;;10.26;100.00;101342.25;5112882;28;19912;-52
2023/05/12 04:14:56;;;;;;;;;;;;;;;10.25;100.00;101347.34;5113712;28;19918;-49
2023/05/12 04:17:21;;;;;;;;;;;;;;;10.24;100.00;101341.31;5113792;28;19914;-51
2023/05/12 04:19:46;;;;;;;;;;;;;;;10.25;100.00;101344.75;5113225;28;19912;-52
2023/05/12 04:22:11;;;;;;;;;;;;;;;10.26;100.00;101339.66;5113525;28;20424;-49
2023/05/12 04:24:37;;;;;;;;;;;;;;;10.25;100.00;101342.19;5113299;28;19981;-52
2023/05/12 04:27:02;;;;;;;;;;;;;;;10.26;100.00;101342.25;5113440;28;19916;-50
2023/05/12 04:29:28;;;;;;;;;;;;;;;10.27;100.00;101341.44;5113320;28;20252;-49
2023/05/12 04:31:53;;;;;;;;;;;;;;;10.30;100.00;101345.81;5113675;28;19918;-50
2023/05/12 04:34:18;;;;;;;;;;;;;;;10.31;100.00;101347.59;5114687;28;19918;-50
2023/05/12 04:36:44;;;;;;;;;;;;;;;10.30;100.00;101340.66;5120217;28;20317;-51
2023/05/12 04:39:09;;;;;;;;;;;;;;;10.31;100.00;101350.16;5120363;28;19911;-52
2023/05/12 04:41:35;;;;;;;;;;;;;;;10.32;100.00;101339.03;5119733;28;20442;-52
2023/05/12 04:44:00;;;;;;;;;;;;;;;10.33;100.00;101338.22;5120051;28;19912;-51
2023/05/12 04:46:25;;;;;;;;;;;;;;;10.34;100.00;101340.88;5120032;28;19915;-52
2023/05/12 04:48:50;;;;;;;;;;;;;;;10.36;100.00;101351.25;5119900;28;19916;-52
2023/05/12 04:51:16;;;;;;;;;;;;;;;10.36;100.00;101351.25;5119806;28;19919;-51
2023/05/12 04:53:41;;;;;;;;;;;;;;;10.37;100.00;101343.56;5120314;28;19911;-51
2023/05/12 04:56:06;;;;;;;;;;;;;;;10.38;100.00;101342.75;5119969;28;20355;-52
2023/05/12 04:58:32;;;;;;;;;;;;;;;10.40;100.00;101353.13;5119917;28;19911;-52
2023/05/12 05:00:57;;;;;;;;;;;;;;;10.42;100.00;101348.03;5120194;28;19911;-53
2023/05/12 05:03:23;;;;;;;;;;;;;;;10.44;100.00;101360.16;5119357;28;19933;-52
2023/05/12 05:05:48;;;;;;;;;;;;;;;10.46;100.00;101358.50;5119914;28;20317;-52
2023/05/12 05:08:14;;;;;;;;;;;;;;;10.48;100.00;101364.63;5120038;28;20415;-51
2023/05/12 05:10:39;;;;;;;;;;;;;;;10.51;100.00;101361.28;5118927;28;19921;-53
2023/05/12 05:13:04;;;;;;;;;;;;;;;10.52;100.00;101366.50;5120255;28;19911;-51
2023/05/12 05:15:30;;;;;;;;;;;;;;;10.56;100.00;101359.75;5119340;28;20312;-52
2023/05/12 05:17:55;;;;;;;;;;;;;;;10.59;100.00;101366.69;5119994;28;19912;-52
2023/05/12 05:20:20;;;;;;;;;;;;;;;10.62;100.00;101374.56;5119882;28;19954;-52
2023/05/12 05:22:45;;;;;;;;;;;;;;;10.65;100.00;101365.25;5119453;28;19961;-50
2023/05/12 05:25:10;;;;;;;;;;;;;;;10.69;100.00;101373.97;5119723;28;20363;-52
2023/05/12 05:27:37;;;;;;;;;;;;;;;10.72;100.00;101374.09;5119560;28;19919;-53
2023/05/12 05:30:03;;;;;;;;;;;;;;;10.75;100.00;101370.75;5119507;28;19912;-51
2023/05/12 05:32:28;;;;;;;;;;;;;;;10.79;100.00;101378.63;5119449;28;19957;-52
2023/05/12 05:34:53;;;;;;;;;;;;;;;10.82;100.00;101385.59;5119895;28;20003;-50
2023/05/12 05:37:18;;;;;;;;;;;;;;;10.85;100.00;101378.88;5118909;28;19911;-52
2023/05/12 05:39:43;;;;;;;;;;;;;;;10.90;100.00;101375.56;5119846;28;19938;-51
2023/05/12 05:42:08;;;;;;;;;;;;;;;10.94;100.00;101392.94;5119921;28;19964;-52
2023/05/12 05:44:34;;;;;;;;;;;;;;;10.97;100.00;101393.03;5119102;28;19956;-52
2023/05/12 05:47:01;;;;;;;;;;;;;;;11.00;100.00;101394.03;5117040;28;19918;-51
2023/05/12 05:49:26;;;;;;;;;;;;;;;11.06;100.00;101393.38;5116300;28;19919;-52
2023/05/12 05:51:52;;;;;;;;;;;;;;;11.12;100.00;101397.91;5115994;28;19930;-52
2023/05/12 05:54:17;;;;;;;;;;;;;;;11.18;100.00;101396.41;5115894;28;19911;-49
2023/05/12 05:56:42;;;;;;;;;;;;;;;11.25;100.00;101404.38;5116603;28;20410;-50
2023/05/12 05:59:08;;;;;;;;;;;;;;;11.31;100.00;101404.56;5115794;28;19911;-53
2023/05/12 06:01:33;;;;;;;;;;;;;;;11.38;100.00;101405.69;5115962;28;19911;-49
2023/05/12 06:03:59;;;;;;;;;;;;;;;11.47;100.00;101408.59;5116369;28;19980;-50
2023/05/12 06:06:24;;;;;;;;;;;;;;;11.58;100.00;101419.28;5115315;28;19977;-52
2023/05/12 06:08:49;;;;;;;;;;;;;;;11.70;100.00;101414.53;5115913;28;19965;-51
2023/05/12 06:11:15;;;;;;;;;;;;;;;11.81;100.00;101409.72;5115899;28;20433;-50
2023/05/12 06:13:40;;;;;;;;;;;;;;;11.87;100.00;101417.69;5115482;28;19911;-49
2023/05/12 06:16:05;;;;;;;;;;;;;;;11.92;100.00;101423.03;5115748;28;19912;-52
2023/05/12 06:18:35;;;;;;;;;;;;;;;11.99;100.00;101432.75;5115793;28;19912;-53
2023/05/12 06:21:01;;;;;;;;;;;;;;;12.06;100.00;101421.81;5115212;28;20367;-52
2023/05/12 06:23:26;;;;;;;;;;;;;;;12.17;100.00;101430.78;5115527;28;19919;-52
2023/05/12 06:25:51;;;;;;;;;;;;;;;12.26;100.00;101437.06;5115415;28;19912;-52
2023/05/12 06:28:16;;;;;;;;;;;;;;;12.32;100.00;101442.44;5115148;28;20016;-50
2023/05/12 06:30:41;;;;;;;;;;;;;;;12.39;100.00;101441.78;5115790;28;19912;-50
2023/05/12 06:33:07;;;;;;;;;;;;;;;12.47;100.00;101445.50;5115164;28;19915;-53
2023/05/12 06:35:32;;;;;;;;;;;;;;;12.56;100.00;101446.63;5115278;28;19912;-52
2023/05/12 06:37:57;;;;;;;;;;;;;;;12.65;100.00;101450.38;5115567;28;19915;-48
2023/05/12 06:40:22;;;;;;;;;;;;;;;12.78;100.00;101443.88;5115102;28;19919;-51
2023/05/12 06:42:48;;;;;;;;;;;;;;;12.91;100.00;101457.16;5115537;28;19912;-51
2023/05/12 06:45:13;;;;;;;;;;;;;;;13.03;100.00;101454.94;5115536;28;20286;-51
2023/05/12 06:47:39;;;;;;;;;;;;;;;13.15;100.00;101464.75;5114613;28;19912;-53
2023/05/12 06:50:05;;;;;;;;;;;;;;;13.23;100.00;101462.41;5115263;28;19918;-52
2023/05/12 06:52:30;;;;;;;;;;;;;;;13.33;100.00;101459.22;5115180;28;19966;-52
2023/05/12 06:54:55;;;;;;;;;;;;;;;13.44;100.00;101463.03;5115002;28;19951;-53
2023/05/12 06:57:20;;;;;;;;;;;;;;;13.54;100.00;101478.81;5114244;28;19912;-52
2023/05/12 06:59:46;;;;;;;;;;;;;;;13.62;100.00;101473.03;5115268;28;19912;-52
2023/05/12 07:02:11;;;;;;;;;;;;;;;13.71;100.00;101477.59;5114664;28;19912;-50
2023/05/12 07:04:36;;;;;;;;;;;;;;;13.77;100.00;101480.31;5114615;28;19958;-50
2023/05/12 07:07:01;;;;;;;;;;;;;;;13.82;100.00;101478.72;5114909;28;19912;-52
2023/05/12 07:09:26;;;;;;;;;;;;;;;13.96;100.00;101484.25;5113918;28;20012;-51
2023/05/12 07:11:53;;;;;;;;;;;;;;;14.12;100.00;101480.34;5114869;28;20374;-52
2023/05/12 07:15:24;;;;;;;29.73;23.33;;;;;;;14.12;100.00;101488.13;5069431;28;20400;-53
2023/05/12 07:17:49;;;;;;;23.35;20.92;;;;;;;14.13;100.00;101492.47;5070114;28;20025;-52
2023/05/12 07:20:14;;;;;;;22.63;19.75;;;;;;;14.04;100.00;101491.38;5069984;28;20017;-52
2023/05/12 07:22:40;;;;;;;21.35;19.05;;;;;;;14.20;100.00;101490.03;5069444;28;20021;-53
2023/05/12 07:25:06;;;;;;;21.55;19.35;;;;;;;14.29;100.00;101487.66;5069889;28;20090;-53
2023/05/12 07:27:31;;;;;;;19.83;17.27;;;;;;;14.43;100.00;101488.88;5069888;28;20029;-52
2023/05/12 07:29:57;;;;;;;18.35;16.55;;;;;;;14.48;100.00;101495.03;5069448;28;20090;-52
2023/05/12 07:32:24;;;;;;;18.35;16.27;;;;;;;14.68;100.00;101492.09;5069664;28;20021;-53
2023/05/12 07:34:49;;;;;;;17.98;15.90;;;;;;;14.87;100.00;101490.78;5069802;28;20401;-53
2023/05/12 07:37:14;;;;;;;17.45;15.68;;;;;;;15.09;100.00;101489.53;5069468;28;20024;-53
2023/05/12 07:39:40;;;;;;;16.98;15.18;;;;;;;15.10;100.00;101496.47;5069345;28;20020;-53
2023/05/12 07:42:05;;;;;;;16.27;14.68;;;;;;;15.12;100.00;101493.94;5069876;28;20036;-52
2023/05/12 07:44:32;;;;;;;18.05;15.07;;;;;;;15.02;100.00;101500.63;5068879;28;20028;-53
2023/05/12 07:46:57;;;;;;;14.80;11.93;;;;;;;14.91;100.00;101505.59;5069698;28;20028;-51
2023/05/12 07:49:22;;;;;;;13.27;11.27;;;;;;;14.80;100.00;101504.47;5069408;28;20349;-52
2023/05/12 07:51:48;;;;;;;12.75;11.55;;;;;;;14.77;100.00;101505.28;5069088;28;20037;-52
2023/05/12 07:54:13;;;;;;;11.63;10.43;;;;;;;14.81;100.00;101514.88;5069361;28;20034;-52
2023/05/12 07:56:38;;;;;;;11.40;10.15;;;;;;;14.60;100.00;101515.25;5069248;28;20111;-53
2023/05/12 07:59:05;;;;;;;12.30;10.98;;;;;;;14.67;100.00;101503.31;5068578;28;20163;-52
2023/05/12 08:01:30;;;;;;;13.77;10.18;;;;;;;14.67;100.00;101505.91;5069253;28;20025;-53
2023/05/12 08:03:55;;;;;;;11.18;10.07;;;;;;;14.70;100.00;101511.16;5069416;28;20036;-50
2023/05/12 08:06:20;;;;;;;11.18;10.07;;;;;;;14.86;100.00;101519.28;5068271;28;20443;-52
2023/05/12 08:08:46;;;;;;;11.90;10.60;;;;;;;15.17;100.00;101517.38;5069264;28;20024;-52
2023/05/12 08:11:11;;;;;;;11.88;10.68;;;;;;;15.42;100.00;101519.63;5069373;28;20484;-51
2023/05/12 08:13:37;;;;;;;11.95;10.75;;;;;;;15.50;100.00;101521.53;5067813;28;20132;-52
2023/05/12 08:16:02;;;;;;;13.27;9.90;;;;;;;15.45;100.00;101527.50;5069193;28;20104;-51
2023/05/12 08:18:28;;;;;;;11.23;10.00;;;;;;;15.46;100.00;101518.84;5068359;28;20180;-52
2023/05/12 08:20:53;;;;;;;10.30;9.30;;;;;;;15.48;100.00;101524.09;5068608;28;20035;-52
2023/05/12 08:23:19;;;;;;;10.25;9.23;;;;;;;15.63;100.00;101520.91;5068658;28;20461;-52
2023/05/12 08:25:44;;;;;;;10.00;8.95;;;;;;;15.70;100.00;101525.41;5060775;28;20025;-52
2023/05/12 08:28:11;;;;;;;9.30;8.40;;;;;;;15.94;100.00;101532.78;5055348;28;20104;-52
2023/05/12 08:30:36;;;;;;;9.13;8.23;;;;;;;15.96;100.00;101533.72;5055238;28;20079;-52
2023/05/12 08:33:03;;;;;;;10.80;8.15;;;;;;;15.93;100.00;101527.56;5054875;28;20028;-52
2023/05/12 08:35:28;;;;;;;10.27;7.88;;;;;;;16.10;100.00;101530.47;5055181;28;20067;-52
2023/05/12 08:37:54;;;;;;;9.13;7.65;;;;;;;16.38;100.00;101537.03;5055592;28;20025;-53
2023/05/12 08:40:22;;;;;;;10.20;8.40;;;;;;;16.65;100.00;101524.44;5054706;28;20017;-52
2023/05/12 08:43:15;;;;;;;9.15;7.85;;;;;;;16.91;100.00;101540.47;5054940;28;20029;-53
2023/05/12 08:45:41;;;;;;;7.95;6.32;;;;;;;17.18;97.74;101537.38;5054657;28;20079;-53
2023/05/12 08:48:08;;;;;;;6.85;5.28;;;;;;;17.20;93.74;101537.41;5054486;28;20053;-53
2023/05/12 08:50:35;;;;;;;8.00;5.28;;;;;;;17.02;93.45;101541.50;5055142;28;20021;-52
2023/05/12 08:53:03;;;;;;;6.25;5.32;;;;;;;16.67;90.30;101551.34;5055223;28;20032;-51
2023/05/12 08:55:28;;;;;;;6.60;5.90;;;;;;;16.94;95.45;101551.81;5054060;28;20035;-52
2023/05/12 08:57:55;;;;;;;7.72;4.68;;;;;;;17.14;92.73;101550.34;5055317;28;20025;-53
2023/05/12 09:00:24;;;;;;;7.03;5.15;;;;;;;16.82;88.96;101548.13;5054913;28;20029;-53
2023/05/12 09:02:50;;;;;;;5.70;4.80;;;;;;;16.99;90.52;101551.91;5054205;28;20056;-53
2023/05/12 09:05:15;;;;;;;7.35;5.03;;;;;;;17.27;90.57;101553.16;5054755;28;20397;-52
2023/05/12 09:07:45;;;;;;;5.85;5.18;;;;;;;17.50;86.46;101556.91;5054252;28;20465;-52
2023/05/12 09:10:18;;;;;;;8.63;5.70;;;;;;;17.71;93.95;101554.53;5054582;28;20381;-52
2023/05/12 09:12:46;;;;;;;6.80;5.15;;;;;;;18.09;91.94;101556.72;5054792;28;20457;-52
2023/05/12 09:15:17;;;;;;;8.43;4.82;;;;;;;18.34;86.16;101559.53;5053992;28;20074;-51
2023/05/12 09:17:43;;;;;;;6.00;4.53;;;;;;;18.32;88.90;101558.66;5054453;28;20021;-51
2023/05/12 09:20:09;;;;;;;5.38;4.22;;;;;;;18.47;83.60;101565.75;5054571;28;20047;-53
2023/05/12 09:22:34;;;;;;;5.18;4.13;;;;;;;18.42;80.42;101557.88;5053699;28;20061;-52
2023/05/12 09:25:00;;;;;;;6.05;3.97;;;;;;;18.29;82.01;101553.41;5054514;28;20069;-52
2023/05/12 09:27:27;;;;;;;5.32;3.67;;;;;;;18.57;81.91;101559.72;5054351;28;20052;-52
2023/05/12 09:29:52;;;;;;;5.07;3.67;;;;;;;18.46;81.08;101563.13;5053887;28;20461;-53
2023/05/12 09:32:31;;;;;;;5.07;3.80;;;;;;;18.51;81.04;101556.22;5054010;28;20112;-51
2023/05/12 09:35:05;;;;;;;5.03;3.92;;;;;;;18.21;78.23;101557.69;5054294;28;20111;-52
2023/05/12 09:37:31;;;;;;;7.20;4.38;;;;;;;18.13;80.78;101555.00;5052207;28;20807;-52
2023/05/12 09:40:00;;;;;;;4.45;3.85;;;;;;;18.45;79.47;101563.97;5054377;28;20029;-53
2023/05/12 09:42:28;;;;;;;5.20;3.25;;;;;;;18.39;76.09;101567.41;5053988;28;20044;-51
2023/05/12 09:45:08;;;;;;;5.10;3.53;;;;;;;18.73;77.17;101559.84;5053414;28;20025;-53
2023/05/12 09:47:36;;;;;;;5.68;3.28;;;;;;;19.09;82.16;101566.22;5053987;28;20028;-53
2023/05/12 09:50:02;;;;;;;;;;;;;;;19.28;79.12;101575.03;5054176;28;20025;-53
2023/05/12 09:52:28;;;;;;;5.47;3.43;;;;;;;18.86;72.84;101579.97;5053728;28;19966;-53
2023/05/12 09:54:53;;;;;;;4.97;3.40;;;;;;;18.89;71.97;101579.13;5054098;28;20068;-52
2023/05/12 09:57:21;;;;;;;6.00;3.58;;;;;;;19.15;72.29;101574.09;5053006;28;20021;-53
2023/05/12 09:59:47;;;;;;;4.93;3.80;;;;;;;19.85;74.53;101577.03;5053593;28;20067;-50
2023/05/12 10:02:15;;;;;;;5.28;3.67;;;;;;;19.94;72.27;101579.66;5053799;28;20026;-53
2023/05/12 10:04:48;;;;;;;4.82;3.30;;;;;;;20.56;70.92;101588.44;5053256;28;20025;-52
2023/05/12 10:07:16;;;;;;;7.68;3.83;;;;;;;20.69;62.94;101589.31;5053515;28;20385;-53
2023/05/12 10:09:43;;;;;;;7.25;3.50;;;;;;;20.91;62.77;101576.22;5053662;28;20053;-51
2023/05/12 10:12:09;;;;;;;4.78;3.53;;;;;;;21.73;61.05;101585.59;5053187;28;20472;-53
2023/05/12 10:14:35;;;;;;;4.95;3.30;;;;;;;22.39;58.68;101586.97;5052824;28;20052;-53
2023/05/12 10:17:01;;;;;;;3.87;2.70;;;;;;;22.44;58.56;101586.06;5053744;28;20117;-53
2023/05/12 10:19:29;;;;;;;5.10;2.90;;;;;;;22.06;58.22;101589.78;5052738;28;20064;-53
2023/05/12 10:21:56;;;;;;;5.82;3.10;;;;;;;22.59;53.01;101587.66;5053709;28;20036;-52
2023/05/12 10:24:25;;;;;;;3.75;3.17;;;;;;;21.96;55.83;101591.63;5053114;28;20480;-53
2023/05/12 10:26:54;;;;;;;4.88;3.33;;;;;;;21.66;55.78;101585.63;5052621;28;20480;-53
2023/05/12 10:29:20;;;;;;;6.40;3.40;;;;;;;22.33;56.98;101590.47;5053044;28;20032;-52
2023/05/12 10:31:46;;;;;;;4.78;3.30;;;;;;;21.47;57.56;101578.69;5053460;28;20021;-53
2023/05/12 10:34:20;;;;;;;5.40;3.00;;;;;;;21.72;64.69;101592.59;5052369;28;20461;-53
2023/05/12 10:36:48;;;;;;;4.72;2.95;;;;;;;22.67;55.82;101588.47;5053472;28;20025;-53
2023/05/12 10:39:17;;;;;;;6.43;3.45;;;;;;;22.93;54.61;101594.38;5052655;28;20025;-52
2023/05/12 10:41:42;;;;;;;5.18;2.95;;;;;;;23.55;50.60;101588.44;5052848;28;20476;-53
2023/05/12 10:44:09;;;;;;;6.30;3.53;;;;;;;23.09;48.89;101589.84;5053321;28;20020;-53
2023/05/12 10:46:35;;;;;;;4.50;3.05;;;;;;;22.64;52.23;101593.75;5052252;28;20036;-52
2023/05/12 10:49:07;;;;;;;7.22;3.10;;;;;;;22.26;53.73;101597.53;5052772;28;20025;-53
2023/05/12 10:51:35;;;;;;;5.00;3.40;;;;;;;21.21;57.53;101603.25;5052700;28;20152;-53
2023/05/12 10:54:06;;;;;;;5.95;3.47;;;;;;;21.03;57.27;101605.03;5052284;28;20040;-53
2023/05/12 10:56:37;;;;;;;5.68;3.55;;;;;;;20.82;60.43;101605.06;5052411;28;20492;-52
2023/05/12 10:59:16;;;;;;;4.60;3.38;;;;;;;20.71;61.58;101603.31;5052820;28;20404;-53
2023/05/12 11:01:54;;;;;;;7.80;3.78;;;;;;;20.31;59.41;101607.63;5052094;28;20530;-53
2023/05/12 11:04:21;;;;;;;9.90;3.55;;;;;;;20.49;60.56;101610.28;5052521;28;20025;-51
2023/05/12 11:06:57;;;;;;;6.78;3.80;;;;;;;21.37;59.13;101596.22;5052783;28;20500;-53
2023/05/12 11:09:23;;;;;;;9.25;3.70;;;;;;;21.19;55.93;101605.88;5052001;28;20028;-53
2023/05/12 11:11:49;;;;;;;4.75;3.20;;;;;;;20.74;59.18;101612.94;5052659;28;20554;-53
2023/05/12 11:14:15;;;;;;;7.38;3.60;;;;;;;20.90;57.83;101619.03;5051919;28;20088;-53
2023/05/12 11:16:42;;;;;;;5.03;3.53;;;;;;;21.59;55.04;101611.88;5052548;28;20036;-52
2023/05/12 11:19:07;;;;;;;5.25;3.45;;;;;;;21.84;54.56;101615.28;5052610;28;20025;-53
2023/05/12 11:21:33;;;;;;;9.55;3.92;;;;;;;21.80;54.93;101622.28;5052054;28;20047;-53
2023/05/12 11:24:00;;;;;;;6.57;3.60;;;;;;;22.85;53.05;101610.22;5052727;28;20033;-54
2023/05/12 11:26:26;;;;;;;;;;;;;;;23.11;57.15;101619.59;5052945;28;20104;-53
2023/05/12 11:28:52;;;;;;;5.55;3.13;;;;;;;23.17;52.35;101638.84;5052089;28;19999;-52
2023/05/12 11:31:19;;;;;;;5.65;3.38;;;;;;;23.41;48.52;101631.59;5051981;28;20060;-52
2023/05/12 11:33:44;;;;;;;4.18;3.08;;;;;;;24.73;47.07;101625.38;5052344;28;20025;-54
2023/05/12 11:36:10;;;;;;;4.85;3.00;;;;;;;25.35;45.28;101634.81;5052192;28;20113;-53
2023/05/12 11:38:35;;;;;;;5.72;3.30;;;;;;;24.64;46.68;101633.44;5052108;28;20028;-53
2023/05/12 11:41:00;;;;;;;3.95;3.05;;;;;;;24.46;42.13;101631.94;5052737;28;20025;-54
2023/05/12 11:43:27;;;;;;;4.50;3.03;;;;;;;23.37;47.28;101642.16;5051738;28;20064;-52
2023/05/12 11:45:54;;;;;;;7.68;3.50;;;;;;;23.15;46.40;101639.72;5052255;28;20021;-53
2023/05/12 11:48:21;;;;;;;7.85;3.30;;;;;;;22.40;48.56;101646.50;5052076;28;20071;-53
2023/05/12 11:50:47;;;;;;;5.15;2.95;;;;;;;21.85;48.22;101638.88;5051947;28;20118;-53
2023/05/12 11:53:15;;;;;;;6.47;2.78;;;;;;;21.21;51.13;101645.19;5052538;28;20112;-54
2023/05/12 11:55:51;;;;;;;5.57;3.20;;;;;;;20.77;55.61;101644.34;5052439;28;20025;-53